Time;durP1;ratioP1;P1;durP2;ratioP2;P2;SDS_P1;SDS_P2;PMS_P1;PMS_P2;Temp;Humidity;BMP_temperature;BMP_pressure;BME280_temperature;BME280_humidity;BME280_pressure;Samples;Min_cycle;Max_cycle;Signal;HPM_P1;HPM_P2
2023/10/21 00:01:34;;;;;;;1.10;1.10;;;15.90;99.90;;;;;;965029;147;27360;-77
2023/10/21 00:04:01;;;;;;;1.12;1.07;;;15.90;99.90;;;;;;964780;148;27310;-77
2023/10/21 00:06:27;;;;;;;1.30;1.17;;;15.90;99.90;;;;;;965085;147;28665;-77
2023/10/21 00:08:54;;;;;;;1.70;1.10;;;16.00;99.90;;;;;;964226;148;27448;-77
2023/10/21 00:11:20;;;;;;;1.12;1.02;;;16.00;99.90;;;;;;964637;148;27289;-77
2023/10/21 00:13:47;;;;;;;1.05;0.90;;;16.00;99.90;;;;;;964359;148;27322;-77
2023/10/21 00:16:14;;;;;;;2.20;1.20;;;16.00;99.90;;;;;;964150;148;27290;-76
2023/10/21 00:18:40;;;;;;;1.37;1.27;;;16.00;99.90;;;;;;964255;148;27397;-77
2023/10/21 00:21:07;;;;;;;1.12;1.00;;;16.00;99.90;;;;;;964821;148;27286;-76
2023/10/21 00:23:33;;;;;;;1.15;1.07;;;16.10;99.90;;;;;;964151;148;27367;-77
2023/10/21 00:26:03;;;;;;;1.30;1.20;;;16.00;99.90;;;;;;964735;148;27335;-78
2023/10/21 00:28:29;;;;;;;1.10;1.10;;;16.10;99.90;;;;;;963829;148;27370;-77
2023/10/21 00:30:56;;;;;;;1.52;1.17;;;16.10;99.90;;;;;;964068;148;27320;-77
2023/10/21 00:33:22;;;;;;;1.80;1.17;;;16.10;99.90;;;;;;963579;148;27303;-76
2023/10/21 00:35:49;;;;;;;2.58;1.17;;;16.10;99.90;;;;;;964605;148;27298;-77
2023/10/21 00:38:16;;;;;;;1.32;1.22;;;16.00;99.90;;;;;;951579;148;27383;-77
2023/10/21 00:40:51;;;;;;;1.47;1.10;;;16.00;99.90;;;;;;946645;149;27358;-75
2023/10/21 00:43:39;;;;;;;1.65;1.50;;;16.00;99.90;;;;;;943182;149;27358;-77
2023/10/21 00:46:17;;;;;;;1.05;1.05;;;16.00;99.90;;;;;;931286;149;27394;-75
2023/10/21 00:48:41;;;;;;;1.22;1.00;;;15.90;99.90;;;;;;943548;149;27440;-75
2023/10/21 00:51:09;;;;;;;1.55;1.10;;;15.90;99.90;;;;;;946991;149;27277;-77
2023/10/21 00:53:35;;;;;;;0.98;0.90;;;15.90;99.90;;;;;;945545;149;27451;-77
2023/10/21 00:56:01;;;;;;;1.32;0.88;;;15.90;99.90;;;;;;947072;149;27789;-77
2023/10/21 00:58:30;;;;;;;2.47;1.05;;;15.90;99.90;;;;;;947179;148;27316;-74
2023/10/21 01:00:54;;;;;;;0.95;0.90;;;15.90;99.90;;;;;;942352;149;27458;-75
2023/10/21 01:03:23;;;;;;;1.22;1.00;;;15.90;99.90;;;;;;943189;149;27307;-75
2023/10/21 01:05:48;;;;;;;1.75;1.00;;;15.90;99.90;;;;;;944464;149;27375;-74
2023/10/21 01:08:14;;;;;;;0.80;0.80;;;15.90;99.90;;;;;;944949;149;27337;-76
2023/10/21 01:10:41;;;;;;;1.32;0.93;;;16.00;99.90;;;;;;941569;149;27402;-76
2023/10/21 01:13:07;;;;;;;1.15;0.90;;;16.00;99.90;;;;;;943284;149;27434;-76
2023/10/21 01:15:35;;;;;;;0.80;0.80;;;16.10;99.90;;;;;;944507;149;27344;-76
2023/10/21 01:18:01;;;;;;;0.70;0.70;;;16.10;99.90;;;;;;943230;149;27454;-76
2023/10/21 01:20:27;;;;;;;0.93;0.93;;;16.20;99.90;;;;;;941448;149;27347;-76
2023/10/21 01:22:54;;;;;;;0.95;0.70;;;16.20;99.90;;;;;;942699;149;27328;-76
2023/10/21 01:25:20;;;;;;;0.72;0.72;;;16.30;99.90;;;;;;943647;149;27379;-76
2023/10/21 01:27:48;;;;;;;0.88;0.62;;;16.30;99.90;;;;;;942871;149;27272;-76
2023/10/21 01:30:13;;;;;;;0.88;0.88;;;16.40;99.90;;;;;;944305;149;27453;-76
2023/10/21 01:32:40;;;;;;;1.02;0.68;;;16.40;99.90;;;;;;945226;149;27366;-76
2023/10/21 01:35:07;;;;;;;0.75;0.75;;;16.40;99.90;;;;;;941408;149;27274;-76
2023/10/21 01:37:33;;;;;;;1.32;0.90;;;16.40;99.90;;;;;;943917;147;27323;-76
2023/10/21 01:40:00;;;;;;;1.92;0.70;;;16.40;99.90;;;;;;970305;147;27299;-76
2023/10/21 01:42:26;;;;;;;1.12;1.00;;;16.40;99.90;;;;;;971251;147;27333;-76
2023/10/21 01:44:55;;;;;;;0.85;0.60;;;16.40;99.90;;;;;;970911;145;27378;-76
2023/10/21 01:47:20;;;;;;;2.05;0.75;;;16.40;99.90;;;;;;970112;147;27314;-76
2023/10/21 01:49:46;;;;;;;1.57;0.80;;;16.40;99.90;;;;;;969294;147;27444;-76
2023/10/21 01:52:13;;;;;;;1.10;0.72;;;16.40;99.90;;;;;;969992;147;27939;-76
2023/10/21 01:54:39;;;;;;;0.70;0.70;;;16.40;99.90;;;;;;970348;146;27315;-76
2023/10/21 01:57:06;;;;;;;0.70;0.70;;;16.30;99.90;;;;;;966642;146;27278;-76
2023/10/21 01:59:33;;;;;;;0.80;0.80;;;16.30;99.90;;;;;;969929;145;27339;-76
2023/10/21 02:01:59;;;;;;;0.50;0.50;;;16.30;99.90;;;;;;970631;146;27883;-76
2023/10/21 02:04:26;;;;;;;1.00;0.70;;;16.30;99.90;;;;;;970689;147;27283;-76
2023/10/21 02:06:52;;;;;;;0.30;0.30;;;16.30;99.90;;;;;;970952;147;27352;-76
2023/10/21 02:09:19;;;;;;;0.47;0.47;;;16.40;99.90;;;;;;970157;147;27403;-77
2023/10/21 02:11:46;;;;;;;0.60;0.60;;;16.40;99.90;;;;;;970888;147;27345;-76
2023/10/21 02:14:12;;;;;;;0.40;0.40;;;16.40;99.90;;;;;;970467;146;28304;-76
2023/10/21 02:16:39;;;;;;;0.30;0.30;;;16.40;99.90;;;;;;971177;147;27348;-76
2023/10/21 02:19:05;;;;;;;1.45;0.42;;;16.50;99.90;;;;;;970556;147;27299;-76
2023/10/21 02:21:32;;;;;;;0.28;0.28;;;16.50;99.90;;;;;;970083;147;27313;-76
2023/10/21 02:23:58;;;;;;;0.28;0.28;;;16.60;99.90;;;;;;970623;147;27415;-76
2023/10/21 02:26:25;;;;;;;1.05;0.45;;;16.60;99.90;;;;;;970957;145;27333;-76
2023/10/21 02:28:52;;;;;;;1.47;0.30;;;16.70;99.90;;;;;;970738;146;27755;-76
2023/10/21 02:31:18;;;;;;;0.15;0.15;;;16.80;99.90;;;;;;969888;147;27467;-76
2023/10/21 02:33:45;;;;;;;0.30;0.28;;;16.80;99.90;;;;;;970848;147;27377;-76
2023/10/21 02:36:11;;;;;;;2.58;0.47;;;16.90;99.90;;;;;;969818;145;27902;-76
2023/10/21 02:38:38;;;;;;;1.55;0.25;;;16.90;99.90;;;;;;965050;146;27438;-76
2023/10/21 02:41:05;;;;;;;0.60;0.20;;;17.00;99.90;;;;;;950567;148;27400;-76
2023/10/21 02:43:31;;;;;;;0.35;0.23;;;17.00;99.90;;;;;;951506;149;27237;-76
2023/10/21 02:45:58;;;;;;;0.62;0.37;;;17.00;99.90;;;;;;952789;149;27412;-76
2023/10/21 02:48:24;;;;;;;2.47;0.40;;;17.00;99.90;;;;;;947991;148;27758;-76
2023/10/21 02:50:51;;;;;;;2.17;0.20;;;17.10;99.90;;;;;;951299;149;27329;-76
2023/10/21 02:53:18;;;;;;;0.20;0.20;;;17.10;99.90;;;;;;951135;148;27700;-76
2023/10/21 02:55:44;;;;;;;1.77;0.45;;;17.10;99.90;;;;;;951638;147;27337;-77
2023/10/21 02:58:11;;;;;;;0.33;0.25;;;17.10;99.90;;;;;;949782;148;27302;-76
2023/10/21 03:00:40;;;;;;;0.15;0.15;;;17.20;99.90;;;;;;949682;149;27421;-76
2023/10/21 03:03:04;;;;;;;0.90;0.30;;;17.20;99.90;;;;;;950752;147;27290;-76
2023/10/21 03:05:30;;;;;;;0.85;0.30;;;17.20;99.90;;;;;;951332;148;27360;-76
2023/10/21 03:07:57;;;;;;;0.55;0.20;;;17.20;99.90;;;;;;949734;149;27383;-76
2023/10/21 03:10:24;;;;;;;0.30;0.30;;;17.30;99.90;;;;;;950875;149;27273;-76
2023/10/21 03:12:50;;;;;;;0.90;0.30;;;17.30;99.90;;;;;;950692;148;27286;-76
2023/10/21 03:15:17;;;;;;;0.25;0.25;;;17.30;99.90;;;;;;949942;148;27331;-76
2023/10/21 03:17:43;;;;;;;0.10;0.10;;;17.40;99.90;;;;;;950333;149;27283;-74
2023/10/21 03:20:11;;;;;;;0.10;0.10;;;17.40;99.90;;;;;;949499;148;27323;-73
2023/10/21 03:22:37;;;;;;;0.20;0.20;;;17.40;99.90;;;;;;951485;149;27298;-73
2023/10/21 03:25:05;;;;;;;0.88;0.25;;;17.50;99.90;;;;;;950218;148;27293;-73
2023/10/21 03:27:30;;;;;;;0.42;0.30;;;17.50;99.90;;;;;;950442;149;27403;-74
2023/10/21 03:29:56;;;;;;;0.30;0.23;;;17.50;99.90;;;;;;951249;147;27316;-76
2023/10/21 03:32:23;;;;;;;0.30;0.30;;;17.60;99.90;;;;;;951390;149;27246;-73
2023/10/21 03:34:50;;;;;;;0.33;0.15;;;17.60;99.90;;;;;;951152;149;27412;-75
2023/10/21 03:37:16;;;;;;;0.10;0.10;;;17.60;99.90;;;;;;950216;149;27331;-73
2023/10/21 03:39:43;;;;;;;0.40;0.30;;;17.60;99.90;;;;;;954631;149;27317;-74
2023/10/21 03:42:09;;;;;;;0.20;0.20;;;17.70;99.90;;;;;;961003;149;27337;-73
2023/10/21 03:44:36;;;;;;;0.30;0.30;;;17.70;99.90;;;;;;960703;149;27419;-74
2023/10/21 03:47:03;;;;;;;0.40;0.40;;;17.70;99.90;;;;;;960513;148;27414;-74
2023/10/21 03:49:30;;;;;;;0.30;0.30;;;17.70;99.90;;;;;;960996;149;27252;-73
2023/10/21 03:51:56;;;;;;;0.40;0.37;;;17.70;99.90;;;;;;960510;145;27296;-73
2023/10/21 03:54:22;;;;;;;0.33;0.33;;;17.70;99.90;;;;;;960397;147;27311;-74
2023/10/21 03:56:51;;;;;;;0.20;0.20;;;17.60;99.90;;;;;;960477;149;27280;-73
2023/10/21 03:59:15;;;;;;;0.20;0.20;;;17.60;99.90;;;;;;959889;146;27342;-74
2023/10/21 04:01:42;;;;;;;0.33;0.30;;;17.50;99.90;;;;;;960848;148;27240;-73
2023/10/21 04:04:09;;;;;;;1.00;0.37;;;17.50;99.90;;;;;;959796;146;27387;-73
2023/10/21 04:06:35;;;;;;;0.30;0.30;;;17.40;99.90;;;;;;960582;148;27254;-73
2023/10/21 04:09:02;;;;;;;0.95;0.35;;;17.40;99.90;;;;;;960052;149;27365;-73
2023/10/21 04:11:28;;;;;;;1.32;0.40;;;17.30;99.90;;;;;;960777;148;27349;-74
2023/10/21 04:13:55;;;;;;;0.30;0.30;;;17.30;99.90;;;;;;960538;149;27332;-73
2023/10/21 04:16:22;;;;;;;0.47;0.25;;;17.30;99.90;;;;;;960161;149;27738;-73
2023/10/21 04:18:48;;;;;;;1.12;0.30;;;17.30;99.90;;;;;;959879;149;27308;-73
2023/10/21 04:21:15;;;;;;;0.30;0.30;;;17.30;99.90;;;;;;961207;149;27267;-74
2023/10/21 04:23:41;;;;;;;1.37;0.30;;;17.30;99.90;;;;;;960131;149;27290;-73
2023/10/21 04:26:08;;;;;;;0.15;0.15;;;17.30;99.90;;;;;;960893;148;27377;-73
2023/10/21 04:28:35;;;;;;;0.28;0.28;;;17.30;99.90;;;;;;960309;148;27283;-75
2023/10/21 04:31:01;;;;;;;0.30;0.30;;;17.40;99.90;;;;;;959191;149;27341;-75
2023/10/21 04:33:28;;;;;;;0.20;0.20;;;17.40;99.90;;;;;;960788;148;28454;-75
2023/10/21 04:35:54;;;;;;;0.47;0.42;;;17.40;99.90;;;;;;960805;148;27442;-74
2023/10/21 04:38:21;;;;;;;0.13;0.13;;;17.40;99.90;;;;;;959963;148;27358;-73
2023/10/21 04:40:47;;;;;;;0.20;0.20;;;17.40;99.90;;;;;;946640;149;28390;-73
2023/10/21 04:43:14;;;;;;;0.55;0.53;;;17.40;99.90;;;;;;937231;150;27337;-73
2023/10/21 04:45:41;;;;;;;0.25;0.25;;;17.40;99.90;;;;;;941884;150;27406;-74
2023/10/21 04:48:07;;;;;;;1.45;0.28;;;17.40;99.90;;;;;;939295;150;27422;-75
2023/10/21 04:50:34;;;;;;;1.82;0.60;;;17.40;99.90;;;;;;939578;150;27309;-76
2023/10/21 04:53:00;;;;;;;0.53;0.30;;;17.40;99.90;;;;;;937441;150;27324;-76
2023/10/21 04:55:27;;;;;;;0.33;0.30;;;17.40;99.90;;;;;;939546;150;27338;-73
2023/10/21 04:57:54;;;;;;;0.20;0.20;;;17.40;99.90;;;;;;939099;150;27309;-73
2023/10/21 05:00:20;;;;;;;0.53;0.53;;;17.30;99.90;;;;;;939586;150;27491;-73
2023/10/21 05:02:47;;;;;;;0.70;0.35;;;17.20;99.90;;;;;;940902;150;27393;-74
2023/10/21 05:05:14;;;;;;;0.33;0.33;;;17.20;99.90;;;;;;939469;150;27476;-73
2023/10/21 05:07:40;;;;;;;0.40;0.40;;;17.10;99.90;;;;;;937681;150;27462;-74
2023/10/21 05:10:07;;;;;;;1.00;0.40;;;17.00;99.90;;;;;;938056;150;27409;-76
2023/10/21 05:12:34;;;;;;;1.72;0.42;;;16.90;99.90;;;;;;939719;150;27439;-76
2023/10/21 05:15:00;;;;;;;0.13;0.13;;;16.80;99.90;;;;;;937681;150;27398;-73
2023/10/21 05:17:26;;;;;;;0.35;0.35;;;16.80;99.90;;;;;;939014;150;27334;-73
2023/10/21 05:19:53;;;;;;;0.40;0.40;;;16.80;99.90;;;;;;938343;150;27420;-74
2023/10/21 05:22:19;;;;;;;2.05;0.60;;;16.70;99.90;;;;;;940198;150;27339;-73
2023/10/21 05:24:46;;;;;;;0.37;0.37;;;16.70;99.90;;;;;;938561;150;27482;-74
2023/10/21 05:27:13;;;;;;;0.30;0.30;;;16.70;99.90;;;;;;939320;150;27312;-73
2023/10/21 05:29:39;;;;;;;0.57;0.40;;;16.70;99.90;;;;;;940017;150;27333;-73
2023/10/21 05:32:07;;;;;;;0.42;0.42;;;16.70;99.90;;;;;;941189;150;27408;-73
2023/10/21 05:34:32;;;;;;;0.37;0.30;;;16.80;99.90;;;;;;939738;150;27445;-73
2023/10/21 05:36:59;;;;;;;2.10;0.50;;;16.80;99.90;;;;;;939678;150;27416;-77
2023/10/21 05:39:26;;;;;;;1.37;0.40;;;16.80;99.90;;;;;;939374;150;27392;-76
2023/10/21 05:41:52;;;;;;;0.17;0.17;;;16.80;99.90;;;;;;956191;149;27328;-76
2023/10/21 05:44:19;;;;;;;0.25;0.25;;;16.80;99.90;;;;;;959974;148;27453;-76
2023/10/21 05:46:45;;;;;;;0.45;0.45;;;16.90;99.90;;;;;;960854;149;27271;-76
2023/10/21 05:49:12;;;;;;;0.30;0.30;;;16.90;99.90;;;;;;959639;146;27285;-77
2023/10/21 05:51:39;;;;;;;1.45;0.40;;;16.90;99.90;;;;;;960231;149;27393;-77
2023/10/21 05:54:05;;;;;;;0.82;0.30;;;16.90;99.90;;;;;;960093;146;27395;-76
2023/10/21 05:56:32;;;;;;;1.22;0.60;;;16.90;99.90;;;;;;960577;149;27306;-76
2023/10/21 05:58:58;;;;;;;0.57;0.40;;;16.90;99.90;;;;;;959681;148;27385;-75
2023/10/21 06:01:26;;;;;;;1.17;0.50;;;16.90;99.90;;;;;;960514;146;27308;-76
2023/10/21 06:03:52;;;;;;;0.37;0.37;;;16.90;99.90;;;;;;960280;148;27446;-77
2023/10/21 06:06:18;;;;;;;0.40;0.40;;;16.80;99.90;;;;;;964437;146;27288;-76
2023/10/21 06:08:45;;;;;;;0.30;0.30;;;16.80;99.90;;;;;;942844;149;27455;-77
2023/10/21 06:11:12;;;;;;;0.72;0.50;;;16.80;99.90;;;;;;951474;148;27272;-77
2023/10/21 06:13:38;;;;;;;0.88;0.47;;;16.80;99.90;;;;;;963958;146;27299;-76
2023/10/21 06:16:04;;;;;;;0.42;0.40;;;16.80;99.90;;;;;;963101;146;27382;-77
2023/10/21 06:18:31;;;;;;;0.37;0.37;;;16.80;99.90;;;;;;948123;149;28497;-77
2023/10/21 06:20:58;;;;;;;0.62;0.42;;;16.80;99.90;;;;;;965444;146;27352;-76
2023/10/21 06:23:24;;;;;;;0.35;0.30;;;16.90;99.90;;;;;;949725;148;27309;-77
2023/10/21 06:25:51;;;;;;;0.40;0.40;;;16.90;99.90;;;;;;955065;147;27273;-77
2023/10/21 06:28:17;;;;;;;0.57;0.55;;;17.00;99.90;;;;;;947674;148;27371;-76
2023/10/21 06:30:44;;;;;;;1.12;0.68;;;17.00;99.90;;;;;;969318;145;27278;-76
2023/10/21 06:33:11;;;;;;;0.80;0.30;;;17.10;99.90;;;;;;968057;145;27379;-76
2023/10/21 06:35:37;;;;;;;0.42;0.35;;;17.20;99.90;;;;;;968487;145;27246;-76
2023/10/21 06:38:04;;;;;;;0.37;0.30;;;17.30;99.90;;;;;;968041;145;27431;-75
2023/10/21 06:40:30;;;;;;;0.30;0.30;;;17.40;99.90;;;;;;967470;145;27387;-78
2023/10/21 06:42:57;;;;;;;1.67;0.30;;;17.50;99.90;;;;;;972433;145;27279;-77
2023/10/21 06:45:24;;;;;;;1.00;0.30;;;17.60;99.90;;;;;;970665;145;27319;-76
2023/10/21 06:47:50;;;;;;;1.15;1.15;;;17.60;99.90;;;;;;954108;148;27328;-76
2023/10/21 06:50:17;;;;;;;12.88;9.45;;;17.70;99.90;;;;;;970066;145;27320;-75
2023/10/21 06:52:43;;;;;;;5.65;5.05;;;17.70;99.90;;;;;;970968;145;27287;-75
2023/10/21 06:55:10;;;;;;;2.70;2.50;;;17.70;99.90;;;;;;966183;148;27419;-75
2023/10/21 06:57:37;;;;;;;1.60;1.40;;;17.70;99.90;;;;;;966353;148;27938;-73
2023/10/21 07:00:03;;;;;;;0.65;0.65;;;17.70;99.90;;;;;;966588;145;27416;-74
2023/10/21 07:02:30;;;;;;;0.62;0.62;;;17.70;99.90;;;;;;966006;145;27322;-73
2023/10/21 07:04:56;;;;;;;0.50;0.50;;;17.60;99.90;;;;;;965564;145;27350;-74
2023/10/21 07:07:23;;;;;;;0.40;0.40;;;17.60;99.90;;;;;;965566;148;27347;-73
2023/10/21 07:09:50;;;;;;;0.40;0.40;;;17.60;99.90;;;;;;966450;148;27299;-73
2023/10/21 07:12:16;;;;;;;0.30;0.30;;;17.60;99.90;;;;;;966996;148;27334;-74
2023/10/21 07:14:43;;;;;;;0.35;0.30;;;17.80;99.90;;;;;;965755;145;27333;-73
2023/10/21 07:17:09;;;;;;;0.80;0.80;;;18.10;99.90;;;;;;966823;148;27303;-73
2023/10/21 07:19:36;;;;;;;0.95;0.57;;;18.60;99.90;;;;;;966691;148;27329;-75
2023/10/21 07:22:03;;;;;;;0.33;0.33;;;19.20;99.90;;;;;;970471;145;27346;-77
2023/10/21 07:24:29;;;;;;;0.90;0.13;;;19.90;99.90;;;;;;951386;148;27419;-75
2023/10/21 07:26:56;;;;;;;0.37;0.30;;;20.60;99.90;;;;;;952692;148;27297;-75
2023/10/21 07:29:22;;;;;;;0.72;0.72;;;21.30;99.90;;;;;;953579;148;27302;-75
2023/10/21 07:31:49;;;;;;;7.00;1.85;;;22.00;99.90;;;;;;955467;148;27312;-73
2023/10/21 07:34:15;;;;;;;1.25;1.15;;;22.60;99.90;;;;;;957449;148;27337;-74
2023/10/21 07:36:42;;;;;;;0.53;0.53;;;23.00;99.90;;;;;;951702;148;27318;-75
2023/10/21 07:39:08;;;;;;;0.42;0.28;;;23.40;99.10;;;;;;952253;147;27459;-73
2023/10/21 07:41:35;;;;;;;0.50;0.37;;;23.70;97.70;;;;;;950327;148;28213;-75
2023/10/21 07:44:02;;;;;;;1.95;0.50;;;24.00;95.30;;;;;;932125;150;27345;-77
2023/10/21 07:46:28;;;;;;;0.40;0.10;;;24.30;93.40;;;;;;950717;147;27703;-73
2023/10/21 07:48:56;;;;;;;0.23;0.23;;;24.50;92.60;;;;;;950898;147;27365;-73
2023/10/21 07:51:22;;;;;;;0.20;0.20;;;24.70;91.70;;;;;;950400;147;27414;-73
2023/10/21 07:53:48;;;;;;;0.20;0.20;;;25.00;91.60;;;;;;946624;148;27352;-74
2023/10/21 07:56:15;;;;;;;0.23;0.17;;;25.30;90.80;;;;;;942369;149;27357;-74
2023/10/21 07:58:42;;;;;;;0.13;0.10;;;25.60;90.30;;;;;;942083;152;27476;-79
2023/10/21 08:01:10;;;;;;;1.47;0.30;;;26.00;89.00;;;;;;941406;149;27344;-79
2023/10/21 08:03:34;;;;;;;0.40;0.10;;;26.30;86.70;;;;;;950602;147;27717;-79
2023/10/21 08:06:01;;;;;;;0.20;0.20;;;26.60;85.50;;;;;;948580;148;27353;-80
2023/10/21 08:08:29;;;;;;;0.10;0.10;;;26.90;82.70;;;;;;949795;148;27392;-79
2023/10/21 08:10:54;;;;;;;0.33;0.17;;;27.30;81.60;;;;;;948423;148;27403;-79
2023/10/21 08:13:21;;;;;;;0.28;0.28;;;27.50;79.80;;;;;;947177;148;28232;-78
2023/10/21 08:15:47;;;;;;;0.10;0.10;;;27.70;77.30;;;;;;948578;148;27324;-80
2023/10/21 08:18:14;;;;;;;0.68;0.17;;;27.90;75.20;;;;;;948449;148;28007;-80
2023/10/21 08:20:40;;;;;;;0.47;0.20;;;28.00;75.10;;;;;;949118;148;27300;-76
2023/10/21 08:23:07;;;;;;;0.10;0.10;;;28.10;73.60;;;;;;932768;151;27453;-77
2023/10/21 08:25:34;;;;;;;1.27;0.60;;;28.10;71.10;;;;;;932957;150;27308;-78
2023/10/21 08:28:02;;;;;;;0.40;0.40;;;28.00;70.70;;;;;;951328;148;27328;-77
2023/10/21 08:30:27;;;;;;;0.60;0.60;;;27.80;69.00;;;;;;954344;147;27329;-79
2023/10/21 08:32:53;;;;;;;2.10;1.90;;;27.50;67.60;;;;;;951026;147;27621;-76
2023/10/21 08:35:20;;;;;;;2.08;0.95;;;27.10;66.70;;;;;;932768;150;27318;-79
2023/10/21 08:37:47;;;;;;;0.98;0.72;;;26.60;66.00;;;;;;948318;148;27451;-79
2023/10/21 08:40:13;;;;;;;1.40;0.78;;;26.00;65.70;;;;;;934206;151;27382;-78
2023/10/21 08:42:40;;;;;;;0.82;0.68;;;25.40;65.60;;;;;;933598;149;27432;-79
2023/10/21 08:45:07;;;;;;;0.95;0.60;;;24.80;66.00;;;;;;935053;150;27392;-79
2023/10/21 08:47:36;;;;;;;0.90;0.50;;;24.20;66.70;;;;;;931725;151;27406;-78
2023/10/21 08:50:03;;;;;;;0.70;0.70;;;23.90;68.10;;;;;;925926;151;27406;-78
2023/10/21 08:52:29;;;;;;;0.40;0.40;;;23.70;70.80;;;;;;934135;149;27362;-78
2023/10/21 08:54:55;;;;;;;0.88;0.60;;;23.60;71.80;;;;;;934991;149;27314;-77
2023/10/21 08:57:22;;;;;;;0.47;0.47;;;23.50;71.90;;;;;;934181;150;27347;-79
2023/10/21 08:59:51;;;;;;;0.25;0.25;;;23.40;70.90;;;;;;936030;150;27457;-79
2023/10/21 09:02:18;;;;;;;0.70;0.55;;;23.20;70.60;;;;;;947360;147;27344;-78
2023/10/21 09:04:45;;;;;;;0.50;0.40;;;23.00;70.30;;;;;;931874;150;27373;-79
2023/10/21 09:07:12;;;;;;;0.28;0.28;;;22.80;70.70;;;;;;943869;148;27361;-76
2023/10/21 09:09:38;;;;;;;0.33;0.33;;;22.50;70.80;;;;;;945931;149;27355;-76
2023/10/21 09:12:11;;;;;;;3.25;0.72;;;22.30;71.40;;;;;;948043;147;27395;-76
2023/10/21 09:15:03;;;;;;;1.12;0.85;;;22.10;71.30;;;;;;943093;149;27357;-76
2023/10/21 09:17:40;;;;;;;0.28;0.20;;;21.90;71.70;;;;;;941873;148;27443;-74
2023/10/21 09:20:07;;;;;;;0.30;0.20;;;21.80;72.60;;;;;;934788;149;27327;-75
2023/10/21 09:22:34;;;;;;;0.47;0.47;;;21.70;73.20;;;;;;952609;147;27518;-74
2023/10/21 09:25:20;;;;;;;0.20;0.20;;;21.70;74.50;;;;;;951068;147;27403;-75
2023/10/21 09:27:49;;;;;;;1.02;0.30;;;21.70;75.70;;;;;;933330;149;27451;-75
2023/10/21 09:30:16;;;;;;;0.40;0.20;;;21.80;77.80;;;;;;951297;147;27349;-75
2023/10/21 09:32:43;;;;;;;0.72;0.40;;;22.00;78.60;;;;;;949749;148;27457;-74
2023/10/21 09:35:15;;;;;;;1.77;0.60;;;22.30;77.70;;;;;;930886;150;27374;-77
2023/10/21 09:37:42;;;;;;;0.72;0.30;;;22.50;76.60;;;;;;949402;147;27326;-75
2023/10/21 09:40:09;;;;;;;0.90;0.30;;;22.70;75.40;;;;;;931035;150;27887;-77
2023/10/21 10:45:32;;;;;;;0.42;0.40;;;22.00;69.50;;;;;;949075;148;27343;-77
2023/10/21 10:48:00;;;;;;;1.37;0.50;;;22.00;69.50;;;;;;943123;148;27377;-78
2023/10/21 10:50:27;;;;;;;0.50;0.50;;;21.90;69.50;;;;;;943114;147;27319;-76
2023/10/21 10:52:54;;;;;;;0.80;0.30;;;21.80;69.50;;;;;;942436;149;27318;-76
2023/10/21 10:55:21;;;;;;;0.80;0.40;;;21.80;69.50;;;;;;944579;147;27368;-76
2023/10/21 10:57:47;;;;;;;0.60;0.42;;;21.80;69.50;;;;;;942411;147;27375;-77
2023/10/21 11:00:20;;;;;;;0.93;0.53;;;21.70;69.50;;;;;;942652;147;27418;-77
2023/10/21 11:02:43;;;;;;;2.00;0.80;;;21.70;69.30;;;;;;941226;147;27317;-76
2023/10/21 11:05:10;;;;;;;0.40;0.40;;;21.70;69.10;;;;;;943004;147;27290;-77
2023/10/21 11:07:37;;;;;;;2.20;0.47;;;21.70;69.00;;;;;;939469;148;27384;-76
2023/10/21 11:10:03;;;;;;;0.47;0.47;;;21.70;68.70;;;;;;941449;147;27435;-76
2023/10/21 11:12:30;;;;;;;2.25;0.80;;;21.70;68.30;;;;;;940736;147;27377;-76
2023/10/21 11:14:57;;;;;;;0.55;0.55;;;21.70;68.40;;;;;;943154;148;27346;-75
2023/10/21 11:17:22;;;;;;;0.65;0.65;;;21.60;68.40;;;;;;942463;147;27356;-76
2023/10/21 11:19:49;;;;;;;1.37;0.60;;;21.60;68.30;;;;;;942270;147;27428;-76
2023/10/21 11:22:28;;;;;;;0.82;0.60;;;21.60;68.10;;;;;;942310;147;27306;-75
2023/10/21 11:24:54;;;;;;;2.05;0.72;;;21.60;68.00;;;;;;943349;147;27403;-76
2023/10/21 11:27:20;;;;;;;0.82;0.60;;;21.50;68.00;;;;;;941535;147;27369;-76
2023/10/21 11:29:47;;;;;;;1.45;0.57;;;21.50;67.80;;;;;;942041;147;27388;-77
2023/10/21 11:32:13;;;;;;;1.82;0.60;;;21.50;67.60;;;;;;940549;148;27399;-76
2023/10/21 11:34:46;;;;;;;1.15;0.50;;;21.50;67.30;;;;;;941700;147;27389;-77
2023/10/21 11:37:12;;;;;;;1.67;0.57;;;21.40;67.60;;;;;;943736;147;27310;-75
2023/10/21 11:39:42;;;;;;;0.70;0.40;;;21.40;67.90;;;;;;943121;147;27349;-77
2023/10/21 11:42:15;;;;;;;0.42;0.40;;;21.40;67.90;;;;;;939607;148;27933;-77
2023/10/21 11:44:41;;;;;;;1.32;0.82;;;21.40;67.60;;;;;;925286;151;27315;-79
2023/10/21 11:47:08;;;;;;;0.33;0.20;;;21.40;67.60;;;;;;935114;150;28163;-78
2023/10/21 11:49:34;;;;;;;3.42;1.02;;;21.50;68.10;;;;;;934887;151;27323;-79
2023/10/21 11:52:01;;;;;;;0.75;0.30;;;21.50;67.90;;;;;;904898;153;27509;-78
2023/10/21 11:54:35;;;;;;;0.95;0.53;;;21.50;68.10;;;;;;933696;151;27467;-80
2023/10/21 12:08:18;;;;;;;1.37;0.50;;;21.70;67.10;;;;;;901048;157;28086;-80
2023/10/21 12:18:13;;;;;;;1.42;0.95;;;21.80;66.90;;;;;;888125;154;27392;-79
2023/10/21 12:38:42;;;;;;;0.98;0.50;;;22.00;66.00;;;;;;934829;151;27357;-77
2023/10/21 12:41:20;;;;;;;0.93;0.75;;;22.10;65.80;;;;;;930762;151;27449;-77
2023/10/21 12:43:47;;;;;;;1.27;0.60;;;22.10;65.30;;;;;;905792;154;27502;-78
2023/10/21 12:46:17;;;;;;;1.07;0.60;;;22.10;65.00;;;;;;932215;150;27381;-77
2023/10/21 12:48:41;;;;;;;2.22;1.57;;;22.00;64.50;;;;;;930526;151;27491;-77
2023/10/21 12:51:09;;;;;;;1.98;0.75;;;22.00;64.50;;;;;;906800;153;27380;-77
2023/10/21 12:53:35;;;;;;;0.93;0.62;;;22.00;64.00;;;;;;929005;150;27308;-78
2023/10/21 12:56:06;;;;;;;0.75;0.60;;;21.90;63.80;;;;;;930350;151;27396;-79
2023/10/21 12:58:28;;;;;;;0.85;0.60;;;21.90;63.60;;;;;;925124;151;27363;-77
2023/10/21 13:00:55;;;;;;;1.15;0.50;;;21.90;63.80;;;;;;927470;151;27318;-77
2023/10/21 13:03:21;;;;;;;1.05;0.60;;;21.90;63.60;;;;;;926811;151;28825;-78
2023/10/21 13:05:47;;;;;;;1.02;0.60;;;21.90;63.70;;;;;;925838;151;27474;-79
2023/10/21 13:08:14;;;;;;;0.72;0.45;;;21.80;63.60;;;;;;926995;151;27475;-78
2023/10/21 13:10:41;;;;;;;1.50;0.62;;;21.80;63.80;;;;;;927921;151;27431;-78
2023/10/21 13:13:08;;;;;;;1.30;0.62;;;21.80;63.80;;;;;;926485;151;27291;-77
2023/10/21 13:15:36;;;;;;;1.17;0.42;;;21.80;63.50;;;;;;924660;151;27375;-78
2023/10/21 13:18:03;;;;;;;0.93;0.60;;;21.70;63.70;;;;;;925249;151;27333;-79
2023/10/21 13:20:27;;;;;;;0.82;0.47;;;21.70;63.50;;;;;;926075;151;27340;-79
2023/10/21 13:22:54;;;;;;;1.37;0.68;;;21.70;63.60;;;;;;926696;151;27691;-76
2023/10/21 13:25:20;;;;;;;1.67;0.70;;;21.70;63.60;;;;;;926605;150;27299;-78
2023/10/21 13:27:47;;;;;;;1.57;0.75;;;21.70;63.90;;;;;;928333;151;27326;-78
2023/10/21 13:30:16;;;;;;;2.87;0.60;;;21.70;63.70;;;;;;930879;151;27387;-76
2023/10/21 13:32:45;;;;;;;2.90;0.60;;;21.70;63.70;;;;;;928102;151;27394;-78
2023/10/21 13:35:12;;;;;;;0.90;0.62;;;21.60;63.40;;;;;;932107;151;27338;-79
2023/10/21 13:37:39;;;;;;;2.85;0.72;;;21.60;63.40;;;;;;925851;151;27341;-78
2023/10/21 13:40:14;;;;;;;1.32;0.80;;;21.60;63.50;;;;;;909391;153;27922;-77
2023/10/21 13:42:32;;;;;;;0.70;0.60;;;21.60;63.50;;;;;;927188;149;27442;-78
2023/10/21 13:45:03;;;;;;;0.70;0.57;;;21.60;63.50;;;;;;927943;151;27840;-78
2023/10/21 13:47:25;;;;;;;1.62;0.75;;;21.50;62.30;;;;;;930616;149;27322;-76
2023/10/21 13:49:51;;;;;;;1.40;0.50;;;21.50;62.80;;;;;;935352;150;28081;-79
2023/10/21 13:52:18;;;;;;;1.30;0.50;;;21.40;62.50;;;;;;905139;154;27383;-79
2023/10/21 13:54:45;;;;;;;0.37;0.30;;;21.40;62.90;;;;;;935456;151;27340;-79
2023/10/21 13:57:11;;;;;;;1.40;0.70;;;21.30;62.80;;;;;;931659;150;27423;-79
2023/10/21 13:59:38;;;;;;;0.57;0.40;;;21.20;62.90;;;;;;933872;149;27407;-78
2023/10/21 14:02:08;;;;;;;1.02;0.50;;;21.20;63.10;;;;;;933658;150;27301;-78
2023/10/21 14:04:31;;;;;;;1.27;0.50;;;21.10;62.90;;;;;;932083;150;27337;-79
2023/10/21 14:06:58;;;;;;;0.88;0.72;;;21.10;62.90;;;;;;904420;154;27421;-79
2023/10/21 14:09:24;;;;;;;1.05;0.78;;;21.00;62.80;;;;;;928305;150;27348;-78
2023/10/21 14:11:51;;;;;;;1.15;0.60;;;20.90;62.80;;;;;;906003;154;27497;-78
2023/10/21 14:14:17;;;;;;;2.10;1.40;;;20.90;62.80;;;;;;933226;149;27364;-78
2023/10/21 14:16:44;;;;;;;0.95;0.53;;;20.80;62.80;;;;;;930859;150;27334;-79
2023/10/21 14:19:10;;;;;;;0.82;0.40;;;20.70;62.80;;;;;;903713;154;27465;-78
2023/10/21 14:21:37;;;;;;;1.20;0.80;;;20.70;63.10;;;;;;927892;151;27442;-76
2023/10/21 14:24:05;;;;;;;0.40;0.40;;;20.60;63.20;;;;;;928797;151;27370;-77
2023/10/21 14:26:31;;;;;;;0.90;0.47;;;20.60;63.20;;;;;;930775;150;27451;-77